createdAt,value
2022-12-03T00:01:14.039Z,5.63
2022-12-03T00:03:40.733Z,5.59
2022-12-03T00:06:07.693Z,5.66
2022-12-03T00:08:34.995Z,5.60
2022-12-03T00:11:01.509Z,5.54
2022-12-03T00:13:28.031Z,5.70
2022-12-03T00:15:55.185Z,5.69
2022-12-03T00:18:21.896Z,5.70
2022-12-03T00:20:48.523Z,5.67
2022-12-03T00:23:15.038Z,5.59
2022-12-03T00:25:41.560Z,5.73
2022-12-03T00:28:08.067Z,5.75
2022-12-03T00:30:34.581Z,5.70
2022-12-03T00:33:01.194Z,5.72
2022-12-03T00:35:27.692Z,5.72
2022-12-03T00:37:54.924Z,5.78
2022-12-03T00:40:21.629Z,5.78
2022-12-03T00:42:48.134Z,5.74
2022-12-03T00:45:14.902Z,5.76
2022-12-03T00:47:41.434Z,5.77
2022-12-03T00:50:08.562Z,5.78
2022-12-03T00:52:35.145Z,5.74
2022-12-03T00:55:01.831Z,5.69
2022-12-03T00:57:28.382Z,5.74
2022-12-03T00:59:54.906Z,5.79
2022-12-03T01:02:21.755Z,5.79
2022-12-03T01:04:48.407Z,5.55
2022-12-03T01:07:14.994Z,5.69
2022-12-03T01:09:41.502Z,5.68
2022-12-03T01:12:08.194Z,5.74
2022-12-03T01:14:34.758Z,5.62
2022-12-03T01:17:01.272Z,5.70
2022-12-03T01:19:27.903Z,5.53
2022-12-03T01:21:55.702Z,5.55
2022-12-03T01:24:22.331Z,5.65
2022-12-03T01:26:48.812Z,5.53
2022-12-03T01:29:15.709Z,5.68
2022-12-03T01:32:01.013Z,5.66
2022-12-03T01:34:27.861Z,5.55
2022-12-03T01:36:54.955Z,5.58
2022-12-03T01:39:21.505Z,5.66
2022-12-03T01:41:49.933Z,5.60
2022-12-03T01:44:33.726Z,5.60
2022-12-03T01:47:04.235Z,5.65
2022-12-03T01:49:56.478Z,5.64
2022-12-03T01:52:27.208Z,5.64
2022-12-03T01:54:57.019Z,5.36
2022-12-03T01:57:27.655Z,5.61
2022-12-03T01:59:57.228Z,5.57
2022-12-03T02:02:29.668Z,5.52
2022-12-03T02:04:57.094Z,5.59
2022-12-03T02:07:29.767Z,5.62
2022-12-03T02:09:58.366Z,5.60
2022-12-03T02:12:34.269Z,5.58
2022-12-03T02:15:02.121Z,5.55
2022-12-03T02:17:29.018Z,5.39
2022-12-03T02:19:56.341Z,5.54
2022-12-03T02:22:43.510Z,5.58
2022-12-03T02:25:19.662Z,5.58
2022-12-03T02:27:47.151Z,5.51
2022-12-03T02:30:18.270Z,5.46
2022-12-03T02:32:45.134Z,5.55
2022-12-03T02:35:20.949Z,5.55
2022-12-03T02:37:50.831Z,5.51
2022-12-03T02:40:21.764Z,5.47
2022-12-03T02:42:50.719Z,5.32
2022-12-03T02:45:26.971Z,5.52
2022-12-03T02:48:03.836Z,5.37
2022-12-03T02:50:34.057Z,5.26
2022-12-03T02:53:05.667Z,5.49
2022-12-03T02:55:37.096Z,5.48
2022-12-03T02:58:05.007Z,5.34
2022-12-03T03:00:31.722Z,5.45
2022-12-03T03:02:58.749Z,5.51
2022-12-03T03:05:25.534Z,5.44
2022-12-03T03:07:52.190Z,5.51
2022-12-03T03:10:22.984Z,5.53
2022-12-03T03:12:51.240Z,5.47
2022-12-03T03:15:18.045Z,5.50
2022-12-03T03:17:44.679Z,5.51
2022-12-03T03:20:11.969Z,5.44
2022-12-03T03:22:40.654Z,5.53
2022-12-03T03:25:10.915Z,5.46
2022-12-03T03:27:38.944Z,5.38
2022-12-03T03:30:06.786Z,5.27
2022-12-03T03:32:33.915Z,5.51
2022-12-03T03:35:00.890Z,5.53
2022-12-03T03:37:28.494Z,5.49
2022-12-03T03:39:55.619Z,5.43
2022-12-03T03:42:22.896Z,5.45
2022-12-03T03:44:49.775Z,5.33
2022-12-03T03:47:18.003Z,5.52
2022-12-03T03:49:44.896Z,5.51
2022-12-03T03:52:11.911Z,5.34
2022-12-03T03:54:39.482Z,5.33
2022-12-03T03:57:06.135Z,5.53
2022-12-03T03:59:32.775Z,5.44
2022-12-03T04:01:59.347Z,5.48
2022-12-03T04:04:27.427Z,5.23
2022-12-03T04:06:54.012Z,5.47
2022-12-03T04:09:20.514Z,5.51
2022-12-03T04:12:05.310Z,5.49
2022-12-03T04:14:31.812Z,5.45
2022-12-03T04:16:58.479Z,5.49
2022-12-03T04:19:25.060Z,5.47
2022-12-03T04:22:10.121Z,5.49
2022-12-03T04:24:36.779Z,5.49
2022-12-03T04:27:21.667Z,5.47
2022-12-03T04:29:48.296Z,5.48
2022-12-03T04:32:33.500Z,5.49
2022-12-03T04:35:18.920Z,5.39
2022-12-03T04:37:45.478Z,5.39
2022-12-03T04:40:31.019Z,5.44
2022-12-03T04:42:57.619Z,5.44
2022-12-03T04:45:24.253Z,5.43
2022-12-03T04:47:50.810Z,5.46
2022-12-03T04:50:17.307Z,5.37
2022-12-03T04:52:43.919Z,5.43
2022-12-03T04:55:10.652Z,5.34
2022-12-03T04:57:37.150Z,5.41
2022-12-03T05:00:05.478Z,5.47
2022-12-03T05:02:32.033Z,5.40
2022-12-03T05:04:58.623Z,5.16
2022-12-03T05:07:25.196Z,5.40
2022-12-03T05:09:51.848Z,5.45
2022-12-03T05:12:18.346Z,5.38
2022-12-03T05:14:44.829Z,5.37
2022-12-03T05:17:11.498Z,5.24
2022-12-03T05:19:56.520Z,5.28
2022-12-03T05:22:23.023Z,5.35
2022-12-03T05:24:49.540Z,5.38
2022-12-03T05:27:20.285Z,5.41
2022-12-03T05:29:50.141Z,5.38
2022-12-03T05:32:16.724Z,5.25
2022-12-03T05:34:43.229Z,5.40
2022-12-03T05:37:09.819Z,5.35
2022-12-03T05:39:36.514Z,5.34
2022-12-03T05:42:22.137Z,5.39
2022-12-03T05:44:48.630Z,5.40
2022-12-03T05:47:15.139Z,5.33
2022-12-03T05:49:41.751Z,5.34
2022-12-03T05:52:08.394Z,5.26
2022-12-03T05:54:34.936Z,5.39
2022-12-03T05:57:01.445Z,5.35
2022-12-03T05:59:28.064Z,5.37
2022-12-03T06:01:54.672Z,5.40
2022-12-03T06:04:21.187Z,5.15
2022-12-03T06:06:47.715Z,5.29
2022-12-03T06:09:14.221Z,5.37
2022-12-03T06:11:41.340Z,5.35
2022-12-03T06:14:08.207Z,5.26
2022-12-03T06:16:34.799Z,5.30
2022-12-03T06:19:01.381Z,5.36
2022-12-03T06:21:27.869Z,5.25
2022-12-03T06:23:54.364Z,5.37
2022-12-03T06:26:20.893Z,5.36
2022-12-03T06:28:49.134Z,5.44
2022-12-03T06:31:15.708Z,5.42
2022-12-03T06:33:42.347Z,5.41
2022-12-03T06:36:09.212Z,5.44
2022-12-03T06:38:35.721Z,5.51
2022-12-03T06:41:02.224Z,5.51
2022-12-03T06:43:28.849Z,5.45
2022-12-03T06:45:55.335Z,5.54
2022-12-03T06:48:22.033Z,5.36
2022-12-03T06:50:48.560Z,5.37
2022-12-03T06:53:15.061Z,5.35
2022-12-03T06:55:41.807Z,5.49
2022-12-03T06:58:08.315Z,5.48
2022-12-03T07:00:34.843Z,5.54
2022-12-03T07:03:01.445Z,5.49
2022-12-03T07:05:28.127Z,5.22
2022-12-03T07:07:55.505Z,5.22
2022-12-03T07:10:22.499Z,5.45
2022-12-03T07:12:49.024Z,5.34
2022-12-03T07:15:15.842Z,5.48
2022-12-03T07:17:42.352Z,5.40
2022-12-03T07:20:10.095Z,5.43
2022-12-03T07:22:36.648Z,5.34
2022-12-03T07:25:03.381Z,5.39
2022-12-03T07:27:29.866Z,5.32
2022-12-03T07:29:56.400Z,5.35
2022-12-03T07:32:23.214Z,5.24
2022-12-03T07:34:49.692Z,5.21
2022-12-03T07:37:21.411Z,5.29
2022-12-03T07:39:49.643Z,5.27
2022-12-03T07:42:16.162Z,5.23
2022-12-03T07:44:42.676Z,5.28
2022-12-03T07:47:09.233Z,5.26
2022-12-03T07:49:36.125Z,5.12
2022-12-03T07:52:02.650Z,5.31
2022-12-03T07:54:29.164Z,5.27
2022-12-03T07:57:01.155Z,5.16
2022-12-03T07:59:28.876Z,5.32
2022-12-03T08:01:55.488Z,5.28
2022-12-03T08:04:22.193Z,5.36
2022-12-03T08:06:49.026Z,5.34
2022-12-03T08:09:16.362Z,5.30
2022-12-03T08:11:45.196Z,5.36
2022-12-03T08:14:13.636Z,5.25
2022-12-03T08:16:41.915Z,5.40
2022-12-03T08:19:13.466Z,5.40
2022-12-03T08:21:41.051Z,5.24
2022-12-03T08:24:16.553Z,5.42
2022-12-03T08:26:45.127Z,5.46
2022-12-03T08:29:17.982Z,5.37
2022-12-03T08:31:48.765Z,5.39
2022-12-03T08:34:17.774Z,5.33
2022-12-03T08:36:45.195Z,5.38
2022-12-03T08:39:30.494Z,5.52
2022-12-03T08:42:27.289Z,5.35
2022-12-03T08:44:55.515Z,5.56
2022-12-03T08:47:24.401Z,5.58
2022-12-03T08:50:17.980Z,5.59
2022-12-03T08:52:44.560Z,5.46
2022-12-03T08:55:33.910Z,5.64
2022-12-03T08:58:00.538Z,5.67
2022-12-03T09:00:27.051Z,5.52
2022-12-03T09:02:59.493Z,5.70
2022-12-03T09:05:30.057Z,5.74
2022-12-03T09:07:56.664Z,5.66
2022-12-03T09:10:23.391Z,5.48
2022-12-03T09:12:49.967Z,5.62
2022-12-03T09:15:16.529Z,5.76
2022-12-03T09:17:43.039Z,5.82
2022-12-03T09:20:10.001Z,5.62
2022-12-03T09:22:36.775Z,5.81
2022-12-03T09:25:03.713Z,5.90
2022-12-03T09:27:30.227Z,5.81
2022-12-03T09:29:56.851Z,5.94
2022-12-03T09:32:24.612Z,5.97
2022-12-03T09:34:51.792Z,6.07
2022-12-03T09:37:18.677Z,5.91
2022-12-03T09:39:45.192Z,5.98
2022-12-03T09:42:12.023Z,6.18
2022-12-03T09:44:38.972Z,6.13
2022-12-03T09:47:06.788Z,6.22
2022-12-03T09:49:36.989Z,6.27
2022-12-03T09:52:05.731Z,6.22
2022-12-03T09:54:33.173Z,6.26
2022-12-03T09:57:02.676Z,6.20
2022-12-03T09:59:34.709Z,6.38
2022-12-03T10:02:02.738Z,6.44
2022-12-03T10:04:29.980Z,6.24
2022-12-03T10:06:58.272Z,6.44
2022-12-03T10:09:28.231Z,6.48
2022-12-03T10:11:57.211Z,6.44
2022-12-03T10:14:24.012Z,6.32
2022-12-03T10:16:51.003Z,6.51
2022-12-03T10:19:27.811Z,6.54
2022-12-03T10:21:55.842Z,6.66
2022-12-03T10:24:22.384Z,6.87
2022-12-03T10:26:51.244Z,6.85
2022-12-03T10:29:20.594Z,6.99
2022-12-03T10:31:56.203Z,6.93
2022-12-03T10:34:41.060Z,7.09
2022-12-03T10:37:12.273Z,7.20
2022-12-03T10:39:58.960Z,7.23
2022-12-03T10:42:28.648Z,7.22
2022-12-03T10:45:18.278Z,7.24
2022-12-03T10:48:12.190Z,7.34
2022-12-03T10:50:53.574Z,7.40
2022-12-03T10:53:22.761Z,7.45
2022-12-03T10:55:51.751Z,7.48
2022-12-03T10:58:18.209Z,7.49
2022-12-03T11:00:45.211Z,7.46
2022-12-03T11:03:29.562Z,7.52
2022-12-03T11:05:57.855Z,7.57
2022-12-03T11:08:27.680Z,7.52
2022-12-03T11:11:03.961Z,7.58
2022-12-03T11:13:33.442Z,7.61
2022-12-03T11:16:02.423Z,7.63
2022-12-03T11:18:37.695Z,7.64
2022-12-03T11:21:14.099Z,7.51
2022-12-03T11:23:46.610Z,7.62
2022-12-03T11:26:19.878Z,7.48
2022-12-03T11:28:46.670Z,7.61
2022-12-03T11:31:47.649Z,7.61
2022-12-03T11:34:20.632Z,7.64
2022-12-03T11:37:12.144Z,7.66
2022-12-03T11:39:44.754Z,7.70
2022-12-03T11:42:26.523Z,7.71
2022-12-03T11:45:05.490Z,7.72
2022-12-03T11:47:46.942Z,7.73
2022-12-03T11:50:23.375Z,7.81
2022-12-03T11:52:55.491Z,7.76
2022-12-03T11:55:37.369Z,7.85
2022-12-03T11:58:23.571Z,7.88
2022-12-03T12:00:52.066Z,7.87
2022-12-03T12:03:33.488Z,7.79
2022-12-03T12:06:00.265Z,7.87
2022-12-03T12:08:26.781Z,7.84
2022-12-03T12:10:53.308Z,7.86
2022-12-03T12:13:49.511Z,7.70
2022-12-03T12:16:42.889Z,7.89
2022-12-03T12:19:36.501Z,7.89
2022-12-03T12:22:14.272Z,7.90
2022-12-03T12:24:41.328Z,7.94
2022-12-03T12:27:09.133Z,7.88
2022-12-03T12:29:37.496Z,7.89
2022-12-03T12:32:10.696Z,7.92
2022-12-03T12:34:38.361Z,7.86
2022-12-03T12:37:09.924Z,7.77
2022-12-03T12:39:36.712Z,7.81
2022-12-03T12:42:24.383Z,7.69
2022-12-03T12:44:52.212Z,7.75
2022-12-03T12:47:18.809Z,7.77
2022-12-03T12:49:51.489Z,7.61
2022-12-03T12:52:18.325Z,7.63
2022-12-03T12:54:44.896Z,7.66
2022-12-03T12:57:20.583Z,7.62
2022-12-03T12:59:47.311Z,7.59
2022-12-03T13:02:37.105Z,7.62
2022-12-03T13:05:04.430Z,7.50
2022-12-03T13:07:31.541Z,7.61
2022-12-03T13:10:00.209Z,7.55
2022-12-03T13:12:27.083Z,7.52
2022-12-03T13:14:58.652Z,7.64
2022-12-03T13:17:26.074Z,7.64
2022-12-03T13:20:03.631Z,7.64
2022-12-03T13:22:31.873Z,7.55
2022-12-03T13:25:38.320Z,7.70
2022-12-03T13:28:08.072Z,7.43
2022-12-03T13:30:34.578Z,7.49
2022-12-03T13:33:29.328Z,7.49
2022-12-03T13:35:56.465Z,7.62
2022-12-03T13:38:25.871Z,7.72
2022-12-03T13:41:01.409Z,7.74
2022-12-03T13:43:32.753Z,7.76
2022-12-03T13:46:00.142Z,7.64
2022-12-03T13:48:34.133Z,7.70
2022-12-03T13:51:11.599Z,7.73
2022-12-03T13:53:40.587Z,7.43
2022-12-03T13:56:28.569Z,7.45
2022-12-03T13:58:57.337Z,7.74
2022-12-03T14:01:23.928Z,7.73
2022-12-03T14:03:50.634Z,7.57
2022-12-03T14:06:17.155Z,7.69
2022-12-03T14:08:43.955Z,7.75
2022-12-03T14:11:30.680Z,7.74
2022-12-03T14:13:57.190Z,7.68
2022-12-03T14:16:23.741Z,7.60
2022-12-03T14:18:50.361Z,7.66
2022-12-03T14:21:16.862Z,7.68
2022-12-03T14:23:43.845Z,7.62
2022-12-03T14:26:10.356Z,7.49
2022-12-03T14:28:36.942Z,7.63
2022-12-03T14:31:03.448Z,7.60
2022-12-03T14:33:29.948Z,7.53
2022-12-03T14:35:57.451Z,7.63
2022-12-03T14:38:24.005Z,7.58
2022-12-03T14:40:50.532Z,7.45
2022-12-03T14:43:17.026Z,7.45
2022-12-03T14:45:43.699Z,7.50
2022-12-03T14:48:10.176Z,7.49
2022-12-03T14:50:36.768Z,7.52
2022-12-03T14:53:03.346Z,7.46
2022-12-03T14:55:29.856Z,7.41
2022-12-03T14:57:56.389Z,7.46
2022-12-03T15:00:22.887Z,7.34
2022-12-03T15:02:49.464Z,7.24
2022-12-03T15:05:15.996Z,7.41
2022-12-03T15:07:42.848Z,7.38
2022-12-03T15:10:09.854Z,7.34
2022-12-03T15:12:36.345Z,7.25
2022-12-03T15:15:02.990Z,7.32
2022-12-03T15:17:31.957Z,7.40
2022-12-03T15:19:58.823Z,7.06
2022-12-03T15:22:25.350Z,7.28
2022-12-03T15:24:51.843Z,7.21
2022-12-03T15:27:18.401Z,7.18
2022-12-03T15:29:44.889Z,7.27
2022-12-03T15:32:11.392Z,7.17
2022-12-03T15:34:37.963Z,7.28
2022-12-03T15:37:04.488Z,7.14
2022-12-03T15:39:32.940Z,7.16
2022-12-03T15:41:59.471Z,7.26
2022-12-03T15:44:25.978Z,7.24
2022-12-03T15:46:52.483Z,7.21
2022-12-03T15:49:20.126Z,7.13
2022-12-03T15:51:46.660Z,7.04
2022-12-03T15:54:13.253Z,7.02
2022-12-03T15:56:39.784Z,7.13
2022-12-03T15:59:06.296Z,7.03
2022-12-03T16:01:33.028Z,6.94
2022-12-03T16:03:59.648Z,7.13
2022-12-03T16:06:26.160Z,7.13
2022-12-03T16:08:52.943Z,7.07
2022-12-03T16:11:19.438Z,6.99
2022-12-03T16:13:45.979Z,7.10
2022-12-03T16:16:12.651Z,7.08
2022-12-03T16:18:39.235Z,7.10
2022-12-03T16:21:05.796Z,7.09
2022-12-03T16:23:32.289Z,7.04
2022-12-03T16:25:58.786Z,7.01
2022-12-03T16:28:25.313Z,7.03
2022-12-03T16:30:51.985Z,6.94
2022-12-03T16:33:22.641Z,6.90
2022-12-03T16:35:53.695Z,6.99
2022-12-03T16:38:20.199Z,6.90
2022-12-03T16:40:46.734Z,7.02
2022-12-03T16:43:13.399Z,6.99
2022-12-03T16:45:42.486Z,6.97
2022-12-03T16:48:09.080Z,6.82
2022-12-03T16:50:37.631Z,6.84
2022-12-03T16:53:04.286Z,6.96
2022-12-03T16:55:30.919Z,6.95
2022-12-03T16:57:57.459Z,6.79
2022-12-03T17:00:25.864Z,6.88
2022-12-03T17:02:52.444Z,6.94
2022-12-03T17:05:19.038Z,6.94
2022-12-03T17:07:45.663Z,6.92
2022-12-03T17:10:12.321Z,6.85
2022-12-03T17:13:07.538Z,6.88
2022-12-03T17:15:25.387Z,6.88
2022-12-03T17:17:51.961Z,6.84
2022-12-03T17:20:18.607Z,6.83
2022-12-03T17:22:45.098Z,6.89
2022-12-03T17:25:11.762Z,6.84
2022-12-03T17:27:43.474Z,6.80
2022-12-03T17:30:12.647Z,6.84
2022-12-03T17:32:39.679Z,6.82
2022-12-03T17:35:06.677Z,6.68
2022-12-03T17:37:33.699Z,6.80
2022-12-03T17:40:00.421Z,6.81
2022-12-03T17:42:26.977Z,6.80
2022-12-03T17:44:53.526Z,6.77
2022-12-03T17:47:20.040Z,6.70
2022-12-03T17:49:46.613Z,6.73
2022-12-03T17:52:13.141Z,6.77
2022-12-03T17:55:08.247Z,6.76
2022-12-03T17:57:41.381Z,6.48
2022-12-03T18:00:08.922Z,6.61
2022-12-03T18:02:35.425Z,6.71
2022-12-03T18:05:02.085Z,6.65
2022-12-03T18:07:28.701Z,6.66
2022-12-03T18:09:55.595Z,6.73
2022-12-03T18:12:22.262Z,6.60
2022-12-03T18:14:48.764Z,6.70
2022-12-03T18:17:15.291Z,6.70
2022-12-03T18:19:41.765Z,6.74
2022-12-03T18:22:08.443Z,6.68
2022-12-03T18:24:35.152Z,6.71
2022-12-03T18:27:01.673Z,6.70
2022-12-03T18:29:28.190Z,6.52
2022-12-03T18:31:54.855Z,6.42
2022-12-03T18:34:21.461Z,6.62
2022-12-03T18:36:49.406Z,6.63
2022-12-03T18:39:36.692Z,6.63
2022-12-03T18:42:17.311Z,6.48
2022-12-03T18:44:49.435Z,6.61
2022-12-03T18:47:19.524Z,6.56
2022-12-03T18:49:46.243Z,6.55
2022-12-03T18:52:15.148Z,6.56
2022-12-03T18:54:42.150Z,6.57
2022-12-03T18:57:09.017Z,6.55
2022-12-03T18:59:35.540Z,6.52
2022-12-03T19:02:02.226Z,6.36
2022-12-03T19:04:28.771Z,6.55
2022-12-03T19:06:55.419Z,6.34
2022-12-03T19:09:22.006Z,6.51
2022-12-03T19:11:48.638Z,6.49
2022-12-03T19:14:15.399Z,6.42
2022-12-03T19:16:42.445Z,6.32
2022-12-03T19:19:09.697Z,6.45
2022-12-03T19:21:36.910Z,6.41
2022-12-03T19:24:23.703Z,6.46
2022-12-03T19:26:54.510Z,6.38
2022-12-03T19:29:24.111Z,6.35
2022-12-03T19:31:51.851Z,6.20
2022-12-03T19:34:18.564Z,6.26
2022-12-03T19:36:45.186Z,6.33
2022-12-03T19:39:11.796Z,6.28
2022-12-03T19:41:39.287Z,6.27
2022-12-03T19:44:10.698Z,6.15
2022-12-03T19:46:37.542Z,6.29
2022-12-03T19:49:04.897Z,6.28
2022-12-03T19:51:35.154Z,6.28
2022-12-03T19:54:04.422Z,6.25
2022-12-03T19:56:31.328Z,6.23
2022-12-03T19:58:58.682Z,6.26
2022-12-03T20:01:28.610Z,6.24
2022-12-03T20:03:56.997Z,6.23
2022-12-03T20:06:26.879Z,6.15
2022-12-03T20:08:58.507Z,6.13
2022-12-03T20:11:30.354Z,6.07
2022-12-03T20:13:59.520Z,5.91
2022-12-03T20:16:28.005Z,6.18
2022-12-03T20:19:03.243Z,6.14
2022-12-03T20:21:31.889Z,6.20
2022-12-03T20:23:58.771Z,5.96
2022-12-03T20:26:25.395Z,6.12
2022-12-03T20:28:54.959Z,6.19
2022-12-03T20:31:23.682Z,6.15
2022-12-03T20:33:52.435Z,6.19
2022-12-03T20:36:23.473Z,6.18
2022-12-03T20:38:55.104Z,6.17
2022-12-03T20:41:22.061Z,6.03
2022-12-03T20:43:48.961Z,6.14
2022-12-03T20:46:25.615Z,6.16
2022-12-03T20:48:54.094Z,5.98
2022-12-03T20:51:23.237Z,6.13
2022-12-03T20:53:50.036Z,6.15
2022-12-03T20:56:20.320Z,6.11
2022-12-03T20:58:50.552Z,6.09
2022-12-03T21:01:19.982Z,6.05
2022-12-03T21:03:47.414Z,6.01
2022-12-03T21:06:14.909Z,5.99
2022-12-03T21:08:42.791Z,5.87
2022-12-03T21:11:17.107Z,5.92
2022-12-03T21:13:44.341Z,5.86
2022-12-03T21:16:39.739Z,5.85
2022-12-03T21:19:11.396Z,5.84
2022-12-03T21:21:37.921Z,5.74
2022-12-03T21:24:04.683Z,5.45
2022-12-03T21:26:31.366Z,5.73
2022-12-03T21:28:57.872Z,5.68
2022-12-03T21:31:26.626Z,5.54
2022-12-03T21:33:54.653Z,5.65
2022-12-03T21:36:21.912Z,5.63
2022-12-03T21:38:48.699Z,5.58
2022-12-03T21:41:16.029Z,5.55
2022-12-03T21:43:43.570Z,5.52
2022-12-03T21:47:10.838Z,5.36
2022-12-03T21:49:01.711Z,5.44
2022-12-03T21:51:28.244Z,5.44
2022-12-03T21:53:54.866Z,5.36
2022-12-03T21:56:21.547Z,5.36
2022-12-03T21:58:48.070Z,5.32
2022-12-03T22:01:19.485Z,5.33
2022-12-03T22:03:46.674Z,5.30
2022-12-03T22:06:14.015Z,5.26
2022-12-03T22:08:41.439Z,5.19
2022-12-03T22:11:17.818Z,5.21
2022-12-03T22:13:45.002Z,5.16
2022-12-03T22:16:19.597Z,5.16
2022-12-03T22:18:46.625Z,5.09
2022-12-03T22:21:16.049Z,5.08
2022-12-03T22:23:42.692Z,5.03
2022-12-03T22:26:12.787Z,4.96
2022-12-03T22:28:43.098Z,4.93
2022-12-03T22:31:10.133Z,4.75
2022-12-03T22:33:37.126Z,4.92
2022-12-03T22:36:13.391Z,4.88
2022-12-03T22:38:44.922Z,4.70
2022-12-03T22:41:13.313Z,4.84
2022-12-03T22:43:40.674Z,4.69
2022-12-03T22:46:10.452Z,4.81
2022-12-03T22:48:37.130Z,4.80
2022-12-03T22:51:05.056Z,4.82
2022-12-03T22:53:31.535Z,4.80
2022-12-03T22:56:00.222Z,4.93
2022-12-03T22:58:28.637Z,4.64
2022-12-03T23:01:01.270Z,4.98
2022-12-03T23:03:29.754Z,5.00
2022-12-03T23:05:56.591Z,5.10
2022-12-03T23:08:23.282Z,5.15
2022-12-03T23:10:52.117Z,5.06
2022-12-03T23:13:19.619Z,5.27
2022-12-03T23:15:51.826Z,5.23
2022-12-03T23:18:19.917Z,5.35
2022-12-03T23:20:49.092Z,5.31
2022-12-03T23:23:16.788Z,5.43
2022-12-03T23:25:43.317Z,5.30
2022-12-03T23:28:10.611Z,5.38
2022-12-03T23:30:38.819Z,5.56
2022-12-03T23:33:06.406Z,5.58
2022-12-03T23:35:33.526Z,5.58
2022-12-03T23:38:00.155Z,5.63
2022-12-03T23:40:26.695Z,5.61
2022-12-03T23:42:53.197Z,5.61
2022-12-03T23:45:19.690Z,5.60
2022-12-03T23:47:46.210Z,5.63
2022-12-03T23:50:12.993Z,5.73
2022-12-03T23:52:39.546Z,5.72
2022-12-03T23:55:06.519Z,5.75
2022-12-03T23:57:34.469Z,5.73
